sensor_id;sensor_type;location;lat;lon;timestamp;P1;durP1;ratioP1;P2;durP2;ratioP2
43345;SDS011;28937;51.160;4.146;2023-04-15T00:00:14;6.63;;;4.60;;
43345;SDS011;28937;51.160;4.146;2023-04-15T00:02:41;6.72;;;3.90;;
43345;SDS011;28937;51.160;4.146;2023-04-15T00:05:08;5.18;;;4.40;;
43345;SDS011;28937;51.160;4.146;2023-04-15T00:07:34;6.80;;;3.80;;
43345;SDS011;28937;51.160;4.146;2023-04-15T00:10:00;4.85;;;3.80;;
43345;SDS011;28937;51.160;4.146;2023-04-15T00:12:26;6.10;;;4.03;;
43345;SDS011;28937;51.160;4.146;2023-04-15T00:14:52;5.68;;;3.80;;
43345;SDS011;28937;51.160;4.146;2023-04-15T00:17:18;5.85;;;3.72;;
43345;SDS011;28937;51.160;4.146;2023-04-15T00:19:44;6.72;;;3.70;;
43345;SDS011;28937;51.160;4.146;2023-04-15T00:22:10;4.80;;;3.53;;
43345;SDS011;28937;51.160;4.146;2023-04-15T00:24:36;4.85;;;3.35;;
43345;SDS011;28937;51.160;4.146;2023-04-15T00:27:02;5.90;;;3.38;;
43345;SDS011;28937;51.160;4.146;2023-04-15T00:29:28;6.53;;;3.22;;
43345;SDS011;28937;51.160;4.146;2023-04-15T00:31:54;5.82;;;3.50;;
43345;SDS011;28937;51.160;4.146;2023-04-15T00:34:20;4.75;;;3.88;;
43345;SDS011;28937;51.160;4.146;2023-04-15T00:36:47;3.60;;;3.25;;
43345;SDS011;28937;51.160;4.146;2023-04-15T00:39:13;5.30;;;3.15;;
43345;SDS011;28937;51.160;4.146;2023-04-15T00:41:38;3.28;;;2.92;;
43345;SDS011;28937;51.160;4.146;2023-04-15T00:44:05;5.38;;;3.60;;
43345;SDS011;28937;51.160;4.146;2023-04-15T00:46:31;5.50;;;3.13;;
43345;SDS011;28937;51.160;4.146;2023-04-15T00:48:59;3.55;;;3.00;;
43345;SDS011;28937;51.160;4.146;2023-04-15T00:51:25;4.13;;;3.10;;
43345;SDS011;28937;51.160;4.146;2023-04-15T00:53:51;3.15;;;2.85;;
43345;SDS011;28937;51.160;4.146;2023-04-15T00:56:16;3.17;;;2.70;;
43345;SDS011;28937;51.160;4.146;2023-04-15T00:58:45;6.15;;;3.25;;
43345;SDS011;28937;51.160;4.146;2023-04-15T01:01:11;4.38;;;3.28;;
43345;SDS011;28937;51.160;4.146;2023-04-15T01:03:37;5.32;;;3.78;;
43345;SDS011;28937;51.160;4.146;2023-04-15T01:06:03;4.70;;;3.30;;
43345;SDS011;28937;51.160;4.146;2023-04-15T01:08:28;5.63;;;3.50;;
43345;SDS011;28937;51.160;4.146;2023-04-15T01:10:57;4.82;;;3.28;;
43345;SDS011;28937;51.160;4.146;2023-04-15T01:13:27;4.72;;;3.30;;
43345;SDS011;28937;51.160;4.146;2023-04-15T01:15:54;6.35;;;3.58;;
43345;SDS011;28937;51.160;4.146;2023-04-15T01:18:21;3.95;;;3.20;;
43345;SDS011;28937;51.160;4.146;2023-04-15T01:20:47;3.35;;;2.63;;
43345;SDS011;28937;51.160;4.146;2023-04-15T01:23:12;4.28;;;3.30;;
43345;SDS011;28937;51.160;4.146;2023-04-15T01:25:38;3.47;;;2.90;;
43345;SDS011;28937;51.160;4.146;2023-04-15T01:28:05;3.20;;;2.63;;
43345;SDS011;28937;51.160;4.146;2023-04-15T01:30:33;3.13;;;2.80;;
43345;SDS011;28937;51.160;4.146;2023-04-15T01:32:59;4.60;;;3.08;;
43345;SDS011;28937;51.160;4.146;2023-04-15T01:35:25;3.13;;;2.83;;
43345;SDS011;28937;51.160;4.146;2023-04-15T01:37:51;5.90;;;2.97;;
43345;SDS011;28937;51.160;4.146;2023-04-15T01:40:18;2.60;;;2.40;;
43345;SDS011;28937;51.160;4.146;2023-04-15T01:42:44;4.90;;;3.03;;
43345;SDS011;28937;51.160;4.146;2023-04-15T01:45:10;4.03;;;2.13;;
43345;SDS011;28937;51.160;4.146;2023-04-15T01:47:37;4.15;;;2.80;;
43345;SDS011;28937;51.160;4.146;2023-04-15T01:50:03;3.40;;;2.53;;
43345;SDS011;28937;51.160;4.146;2023-04-15T01:52:29;4.53;;;2.70;;
43345;SDS011;28937;51.160;4.146;2023-04-15T01:54:54;4.22;;;2.38;;
43345;SDS011;28937;51.160;4.146;2023-04-15T01:57:20;3.42;;;3.00;;
43345;SDS011;28937;51.160;4.146;2023-04-15T01:59:45;4.40;;;2.30;;
43345;SDS011;28937;51.160;4.146;2023-04-15T02:02:11;4.13;;;2.72;;
43345;SDS011;28937;51.160;4.146;2023-04-15T02:04:36;3.28;;;2.40;;
43345;SDS011;28937;51.160;4.146;2023-04-15T02:07:02;4.63;;;2.58;;
43345;SDS011;28937;51.160;4.146;2023-04-15T02:09:28;3.70;;;2.55;;
43345;SDS011;28937;51.160;4.146;2023-04-15T02:11:53;3.55;;;2.53;;
43345;SDS011;28937;51.160;4.146;2023-04-15T02:14:20;2.72;;;2.40;;
43345;SDS011;28937;51.160;4.146;2023-04-15T02:16:46;4.40;;;2.40;;
43345;SDS011;28937;51.160;4.146;2023-04-15T02:19:11;4.38;;;3.10;;
43345;SDS011;28937;51.160;4.146;2023-04-15T02:21:37;6.53;;;2.60;;
43345;SDS011;28937;51.160;4.146;2023-04-15T02:24:03;3.85;;;2.53;;
43345;SDS011;28937;51.160;4.146;2023-04-15T02:26:29;2.97;;;2.58;;
43345;SDS011;28937;51.160;4.146;2023-04-15T02:28:57;2.47;;;2.00;;
43345;SDS011;28937;51.160;4.146;2023-04-15T02:31:23;5.13;;;2.67;;
43345;SDS011;28937;51.160;4.146;2023-04-15T02:33:49;2.72;;;2.20;;
43345;SDS011;28937;51.160;4.146;2023-04-15T02:36:15;4.35;;;2.90;;
43345;SDS011;28937;51.160;4.146;2023-04-15T02:38:40;6.35;;;2.53;;
43345;SDS011;28937;51.160;4.146;2023-04-15T02:41:07;2.65;;;2.40;;
43345;SDS011;28937;51.160;4.146;2023-04-15T02:43:34;2.80;;;2.40;;
43345;SDS011;28937;51.160;4.146;2023-04-15T02:46:00;3.50;;;2.58;;
43345;SDS011;28937;51.160;4.146;2023-04-15T02:48:25;3.38;;;2.58;;
43345;SDS011;28937;51.160;4.146;2023-04-15T02:50:51;3.90;;;2.60;;
43345;SDS011;28937;51.160;4.146;2023-04-15T02:53:16;3.33;;;2.70;;
43345;SDS011;28937;51.160;4.146;2023-04-15T02:55:43;3.28;;;2.70;;
43345;SDS011;28937;51.160;4.146;2023-04-15T02:58:09;4.35;;;2.83;;
43345;SDS011;28937;51.160;4.146;2023-04-15T03:00:35;4.43;;;2.80;;
43345;SDS011;28937;51.160;4.146;2023-04-15T03:03:03;3.80;;;2.92;;
43345;SDS011;28937;51.160;4.146;2023-04-15T03:05:30;3.33;;;2.97;;
43345;SDS011;28937;51.160;4.146;2023-04-15T03:07:55;3.15;;;2.70;;
43345;SDS011;28937;51.160;4.146;2023-04-15T03:10:21;3.20;;;2.90;;
43345;SDS011;28937;51.160;4.146;2023-04-15T03:12:47;4.38;;;2.90;;
43345;SDS011;28937;51.160;4.146;2023-04-15T03:15:14;4.05;;;3.03;;
43345;SDS011;28937;51.160;4.146;2023-04-15T03:17:40;4.22;;;2.90;;
43345;SDS011;28937;51.160;4.146;2023-04-15T03:20:06;4.28;;;2.83;;
43345;SDS011;28937;51.160;4.146;2023-04-15T03:22:32;4.63;;;2.58;;
43345;SDS011;28937;51.160;4.146;2023-04-15T03:24:58;4.32;;;3.05;;
43345;SDS011;28937;51.160;4.146;2023-04-15T03:27:24;4.55;;;3.30;;
43345;SDS011;28937;51.160;4.146;2023-04-15T03:29:49;3.63;;;2.72;;
43345;SDS011;28937;51.160;4.146;2023-04-15T03:32:15;4.43;;;3.13;;
43345;SDS011;28937;51.160;4.146;2023-04-15T03:34:41;4.82;;;3.58;;
43345;SDS011;28937;51.160;4.146;2023-04-15T03:37:07;5.90;;;3.15;;
43345;SDS011;28937;51.160;4.146;2023-04-15T03:39:33;5.78;;;2.97;;
43345;SDS011;28937;51.160;4.146;2023-04-15T03:41:59;5.35;;;3.00;;
43345;SDS011;28937;51.160;4.146;2023-04-15T03:44:26;4.30;;;3.13;;
43345;SDS011;28937;51.160;4.146;2023-04-15T03:46:52;5.93;;;3.10;;
43345;SDS011;28937;51.160;4.146;2023-04-15T03:49:17;4.47;;;3.60;;
43345;SDS011;28937;51.160;4.146;2023-04-15T03:51:44;9.05;;;3.70;;
43345;SDS011;28937;51.160;4.146;2023-04-15T03:54:09;6.00;;;3.60;;
43345;SDS011;28937;51.160;4.146;2023-04-15T03:56:35;5.97;;;3.53;;
43345;SDS011;28937;51.160;4.146;2023-04-15T03:59:01;5.05;;;3.15;;
43345;SDS011;28937;51.160;4.146;2023-04-15T04:01:27;4.72;;;2.85;;
43345;SDS011;28937;51.160;4.146;2023-04-15T04:03:52;4.38;;;3.15;;
43345;SDS011;28937;51.160;4.146;2023-04-15T04:06:18;6.55;;;3.60;;
43345;SDS011;28937;51.160;4.146;2023-04-15T04:08:44;5.57;;;3.55;;
43345;SDS011;28937;51.160;4.146;2023-04-15T04:11:10;5.15;;;3.45;;
43345;SDS011;28937;51.160;4.146;2023-04-15T04:13:35;5.45;;;3.20;;
43345;SDS011;28937;51.160;4.146;2023-04-15T04:16:01;8.05;;;3.30;;
43345;SDS011;28937;51.160;4.146;2023-04-15T04:18:28;9.73;;;3.90;;
43345;SDS011;28937;51.160;4.146;2023-04-15T04:20:55;6.85;;;3.53;;
43345;SDS011;28937;51.160;4.146;2023-04-15T04:23:20;4.47;;;3.72;;
43345;SDS011;28937;51.160;4.146;2023-04-15T04:25:46;8.32;;;4.00;;
43345;SDS011;28937;51.160;4.146;2023-04-15T04:28:12;7.00;;;4.30;;
43345;SDS011;28937;51.160;4.146;2023-04-15T04:30:37;6.18;;;3.65;;
43345;SDS011;28937;51.160;4.146;2023-04-15T04:33:03;8.15;;;4.15;;
43345;SDS011;28937;51.160;4.146;2023-04-15T04:35:29;7.72;;;4.10;;
43345;SDS011;28937;51.160;4.146;2023-04-15T04:37:54;8.10;;;4.07;;
43345;SDS011;28937;51.160;4.146;2023-04-15T04:40:20;7.35;;;3.75;;
43345;SDS011;28937;51.160;4.146;2023-04-15T04:42:46;6.72;;;4.20;;
43345;SDS011;28937;51.160;4.146;2023-04-15T04:45:11;6.85;;;4.28;;
43345;SDS011;28937;51.160;4.146;2023-04-15T04:47:37;7.43;;;4.88;;
43345;SDS011;28937;51.160;4.146;2023-04-15T04:50:03;9.18;;;4.03;;
43345;SDS011;28937;51.160;4.146;2023-04-15T04:52:29;7.57;;;4.03;;
43345;SDS011;28937;51.160;4.146;2023-04-15T04:54:54;8.20;;;4.85;;
43345;SDS011;28937;51.160;4.146;2023-04-15T04:57:20;8.18;;;4.65;;
43345;SDS011;28937;51.160;4.146;2023-04-15T04:59:45;6.72;;;4.05;;
43345;SDS011;28937;51.160;4.146;2023-04-15T05:02:11;7.85;;;4.07;;
43345;SDS011;28937;51.160;4.146;2023-04-15T05:04:37;5.88;;;3.50;;
43345;SDS011;28937;51.160;4.146;2023-04-15T05:07:02;4.65;;;3.72;;
43345;SDS011;28937;51.160;4.146;2023-04-15T05:09:28;8.38;;;4.45;;
43345;SDS011;28937;51.160;4.146;2023-04-15T05:11:56;7.20;;;4.40;;
43345;SDS011;28937;51.160;4.146;2023-04-15T05:14:21;8.38;;;4.47;;
43345;SDS011;28937;51.160;4.146;2023-04-15T05:16:47;7.45;;;4.18;;
43345;SDS011;28937;51.160;4.146;2023-04-15T05:19:12;8.18;;;4.20;;
43345;SDS011;28937;51.160;4.146;2023-04-15T05:21:38;9.07;;;4.47;;
43345;SDS011;28937;51.160;4.146;2023-04-15T05:24:04;7.38;;;4.50;;
43345;SDS011;28937;51.160;4.146;2023-04-15T05:26:30;7.68;;;3.88;;
43345;SDS011;28937;51.160;4.146;2023-04-15T05:28:56;7.07;;;3.83;;
43345;SDS011;28937;51.160;4.146;2023-04-15T05:31:21;6.47;;;4.03;;
43345;SDS011;28937;51.160;4.146;2023-04-15T05:33:47;7.70;;;4.53;;
43345;SDS011;28937;51.160;4.146;2023-04-15T05:36:13;9.88;;;4.20;;
43345;SDS011;28937;51.160;4.146;2023-04-15T05:38:38;10.85;;;4.78;;
43345;SDS011;28937;51.160;4.146;2023-04-15T05:41:04;8.00;;;4.78;;
43345;SDS011;28937;51.160;4.146;2023-04-15T05:43:29;7.63;;;4.35;;
43345;SDS011;28937;51.160;4.146;2023-04-15T05:45:55;12.57;;;4.95;;
43345;SDS011;28937;51.160;4.146;2023-04-15T05:48:21;9.85;;;4.97;;
43345;SDS011;28937;51.160;4.146;2023-04-15T05:50:46;9.07;;;5.10;;
43345;SDS011;28937;51.160;4.146;2023-04-15T05:53:12;8.05;;;4.80;;
43345;SDS011;28937;51.160;4.146;2023-04-15T05:55:37;9.93;;;5.10;;
43345;SDS011;28937;51.160;4.146;2023-04-15T05:58:03;10.10;;;4.70;;
43345;SDS011;28937;51.160;4.146;2023-04-15T06:00:28;5.80;;;4.57;;
43345;SDS011;28937;51.160;4.146;2023-04-15T06:02:55;9.52;;;5.13;;
43345;SDS011;28937;51.160;4.146;2023-04-15T06:05:22;8.57;;;5.50;;
43345;SDS011;28937;51.160;4.146;2023-04-15T06:07:48;7.00;;;4.55;;
43345;SDS011;28937;51.160;4.146;2023-04-15T06:10:14;7.80;;;4.57;;
43345;SDS011;28937;51.160;4.146;2023-04-15T06:12:39;8.20;;;5.03;;
43345;SDS011;28937;51.160;4.146;2023-04-15T06:15:05;7.25;;;5.38;;
43345;SDS011;28937;51.160;4.146;2023-04-15T06:17:33;7.50;;;5.28;;
43345;SDS011;28937;51.160;4.146;2023-04-15T06:19:59;7.95;;;5.32;;
43345;SDS011;28937;51.160;4.146;2023-04-15T06:22:24;7.55;;;4.95;;
43345;SDS011;28937;51.160;4.146;2023-04-15T06:24:50;10.00;;;5.57;;
43345;SDS011;28937;51.160;4.146;2023-04-15T06:27:16;8.68;;;5.82;;
43345;SDS011;28937;51.160;4.146;2023-04-15T06:29:42;9.48;;;6.07;;
43345;SDS011;28937;51.160;4.146;2023-04-15T06:32:07;10.20;;;5.85;;
43345;SDS011;28937;51.160;4.146;2023-04-15T06:34:33;11.77;;;6.78;;
43345;SDS011;28937;51.160;4.146;2023-04-15T06:37:00;12.57;;;6.90;;
43345;SDS011;28937;51.160;4.146;2023-04-15T06:39:25;10.95;;;7.40;;
43345;SDS011;28937;51.160;4.146;2023-04-15T06:41:51;9.65;;;7.40;;
43345;SDS011;28937;51.160;4.146;2023-04-15T06:44:17;10.57;;;7.47;;
43345;SDS011;28937;51.160;4.146;2023-04-15T06:46:43;12.30;;;8.27;;
43345;SDS011;28937;51.160;4.146;2023-04-15T06:49:09;14.27;;;8.63;;
43345;SDS011;28937;51.160;4.146;2023-04-15T06:51:35;12.32;;;8.55;;
43345;SDS011;28937;51.160;4.146;2023-04-15T06:54:01;12.88;;;8.85;;
43345;SDS011;28937;51.160;4.146;2023-04-15T06:56:30;11.27;;;8.75;;
43345;SDS011;28937;51.160;4.146;2023-04-15T06:58:56;15.48;;;10.25;;
43345;SDS011;28937;51.160;4.146;2023-04-15T07:01:21;11.63;;;8.40;;
43345;SDS011;28937;51.160;4.146;2023-04-15T07:03:47;11.85;;;9.88;;
43345;SDS011;28937;51.160;4.146;2023-04-15T07:06:13;12.05;;;9.52;;
43345;SDS011;28937;51.160;4.146;2023-04-15T07:08:38;15.15;;;9.05;;
43345;SDS011;28937;51.160;4.146;2023-04-15T07:11:04;12.70;;;9.35;;
43345;SDS011;28937;51.160;4.146;2023-04-15T07:13:30;10.65;;;9.30;;
43345;SDS011;28937;51.160;4.146;2023-04-15T07:15:56;13.57;;;9.38;;
43345;SDS011;28937;51.160;4.146;2023-04-15T07:18:22;15.00;;;9.68;;
43345;SDS011;28937;51.160;4.146;2023-04-15T07:20:48;10.30;;;9.20;;
43345;SDS011;28937;51.160;4.146;2023-04-15T07:23:13;13.70;;;9.55;;
43345;SDS011;28937;51.160;4.146;2023-04-15T07:25:39;12.65;;;8.85;;
43345;SDS011;28937;51.160;4.146;2023-04-15T07:28:05;11.52;;;9.20;;
43345;SDS011;28937;51.160;4.146;2023-04-15T07:30:30;12.75;;;9.02;;
43345;SDS011;28937;51.160;4.146;2023-04-15T07:32:57;12.18;;;9.32;;
43345;SDS011;28937;51.160;4.146;2023-04-15T07:35:23;16.40;;;9.52;;
43345;SDS011;28937;51.160;4.146;2023-04-15T07:37:49;12.80;;;9.07;;
43345;SDS011;28937;51.160;4.146;2023-04-15T07:40:16;13.07;;;9.85;;
43345;SDS011;28937;51.160;4.146;2023-04-15T07:42:42;15.35;;;10.07;;
43345;SDS011;28937;51.160;4.146;2023-04-15T07:45:08;10.18;;;8.60;;
43345;SDS011;28937;51.160;4.146;2023-04-15T07:47:34;12.38;;;8.60;;
43345;SDS011;28937;51.160;4.146;2023-04-15T07:50:00;13.38;;;9.20;;
43345;SDS011;28937;51.160;4.146;2023-04-15T07:52:26;14.23;;;9.15;;
43345;SDS011;28937;51.160;4.146;2023-04-15T07:54:52;13.65;;;9.55;;
43345;SDS011;28937;51.160;4.146;2023-04-15T07:57:17;11.45;;;8.73;;
43345;SDS011;28937;51.160;4.146;2023-04-15T07:59:43;12.32;;;9.35;;
43345;SDS011;28937;51.160;4.146;2023-04-15T08:02:09;11.95;;;9.90;;
43345;SDS011;28937;51.160;4.146;2023-04-15T08:04:35;11.77;;;9.93;;
43345;SDS011;28937;51.160;4.146;2023-04-15T08:07:01;12.05;;;9.73;;
43345;SDS011;28937;51.160;4.146;2023-04-15T08:09:28;12.02;;;9.95;;
43345;SDS011;28937;51.160;4.146;2023-04-15T08:11:53;14.73;;;10.43;;
43345;SDS011;28937;51.160;4.146;2023-04-15T08:14:20;12.45;;;9.73;;
43345;SDS011;28937;51.160;4.146;2023-04-15T08:16:46;13.50;;;10.02;;
43345;SDS011;28937;51.160;4.146;2023-04-15T08:19:11;13.88;;;9.32;;
43345;SDS011;28937;51.160;4.146;2023-04-15T08:21:37;13.40;;;9.55;;
43345;SDS011;28937;51.160;4.146;2023-04-15T08:24:02;13.93;;;9.43;;
43345;SDS011;28937;51.160;4.146;2023-04-15T08:26:28;12.18;;;8.55;;
43345;SDS011;28937;51.160;4.146;2023-04-15T08:28:54;13.65;;;8.32;;
43345;SDS011;28937;51.160;4.146;2023-04-15T08:31:19;13.13;;;9.13;;
43345;SDS011;28937;51.160;4.146;2023-04-15T08:33:45;13.75;;;9.02;;
43345;SDS011;28937;51.160;4.146;2023-04-15T08:36:11;10.75;;;8.70;;
43345;SDS011;28937;51.160;4.146;2023-04-15T08:38:37;11.30;;;8.80;;
43345;SDS011;28937;51.160;4.146;2023-04-15T08:41:08;11.68;;;8.13;;
43345;SDS011;28937;51.160;4.146;2023-04-15T08:43:56;14.43;;;8.82;;
43345;SDS011;28937;51.160;4.146;2023-04-15T08:46:23;12.00;;;8.40;;
43345;SDS011;28937;51.160;4.146;2023-04-15T08:48:48;11.45;;;8.57;;
43345;SDS011;28937;51.160;4.146;2023-04-15T08:51:15;12.05;;;9.32;;
43345;SDS011;28937;51.160;4.146;2023-04-15T08:53:42;10.02;;;8.38;;
43345;SDS011;28937;51.160;4.146;2023-04-15T08:56:08;12.52;;;8.15;;
43345;SDS011;28937;51.160;4.146;2023-04-15T08:58:36;10.13;;;8.75;;
43345;SDS011;28937;51.160;4.146;2023-04-15T09:01:02;12.07;;;8.95;;
43345;SDS011;28937;51.160;4.146;2023-04-15T09:03:28;11.10;;;7.97;;
43345;SDS011;28937;51.160;4.146;2023-04-15T09:05:54;13.63;;;7.45;;
43345;SDS011;28937;51.160;4.146;2023-04-15T09:08:21;7.85;;;6.57;;
43345;SDS011;28937;51.160;4.146;2023-04-15T09:10:47;7.38;;;5.88;;
43345;SDS011;28937;51.160;4.146;2023-04-15T09:13:12;8.23;;;6.40;;
43345;SDS011;28937;51.160;4.146;2023-04-15T09:15:38;8.90;;;5.32;;
43345;SDS011;28937;51.160;4.146;2023-04-15T09:18:04;9.13;;;6.07;;
43345;SDS011;28937;51.160;4.146;2023-04-15T09:20:30;6.82;;;6.13;;
43345;SDS011;28937;51.160;4.146;2023-04-15T09:23:13;9.93;;;6.57;;
43345;SDS011;28937;51.160;4.146;2023-04-15T09:25:39;8.10;;;5.53;;
43345;SDS011;28937;51.160;4.146;2023-04-15T09:28:06;6.55;;;3.88;;
43345;SDS011;28937;51.160;4.146;2023-04-15T09:30:32;5.22;;;3.53;;
43345;SDS011;28937;51.160;4.146;2023-04-15T09:32:59;8.27;;;3.40;;
43345;SDS011;28937;51.160;4.146;2023-04-15T09:35:26;6.20;;;3.50;;
43345;SDS011;28937;51.160;4.146;2023-04-15T09:37:53;6.40;;;4.20;;
43345;SDS011;28937;51.160;4.146;2023-04-15T09:40:39;6.20;;;5.20;;
43345;SDS011;28937;51.160;4.146;2023-04-15T09:43:06;5.78;;;3.60;;
43345;SDS011;28937;51.160;4.146;2023-04-15T09:45:34;7.80;;;4.45;;
43345;SDS011;28937;51.160;4.146;2023-04-15T09:50:58;4.30;;;3.90;;
43345;SDS011;28937;51.160;4.146;2023-04-15T09:53:24;6.30;;;4.60;;
43345;SDS011;28937;51.160;4.146;2023-04-15T09:55:51;7.40;;;4.18;;
43345;SDS011;28937;51.160;4.146;2023-04-15T09:58:19;5.50;;;3.35;;
43345;SDS011;28937;51.160;4.146;2023-04-15T10:00:48;7.40;;;5.22;;
43345;SDS011;28937;51.160;4.146;2023-04-15T10:03:24;5.20;;;3.10;;
43345;SDS011;28937;51.160;4.146;2023-04-15T10:05:55;5.15;;;3.58;;
43345;SDS011;28937;51.160;4.146;2023-04-15T10:08:24;5.72;;;3.05;;
43345;SDS011;28937;51.160;4.146;2023-04-15T10:10:52;5.47;;;3.83;;
43345;SDS011;28937;51.160;4.146;2023-04-15T10:13:28;5.47;;;3.00;;
43345;SDS011;28937;51.160;4.146;2023-04-15T10:16:04;4.00;;;2.83;;
43345;SDS011;28937;51.160;4.146;2023-04-15T10:18:40;5.13;;;3.17;;
43345;SDS011;28937;51.160;4.146;2023-04-15T10:21:07;6.88;;;3.80;;
43345;SDS011;28937;51.160;4.146;2023-04-15T10:23:33;10.13;;;3.97;;
43345;SDS011;28937;51.160;4.146;2023-04-15T10:26:00;6.43;;;4.72;;
43345;SDS011;28937;51.160;4.146;2023-04-15T10:28:26;5.18;;;3.92;;
43345;SDS011;28937;51.160;4.146;2023-04-15T10:30:52;5.10;;;3.88;;
43345;SDS011;28937;51.160;4.146;2023-04-15T10:33:19;5.15;;;4.10;;
43345;SDS011;28937;51.160;4.146;2023-04-15T10:35:47;6.55;;;3.00;;
43345;SDS011;28937;51.160;4.146;2023-04-15T10:38:30;4.72;;;3.22;;
43345;SDS011;28937;51.160;4.146;2023-04-15T10:41:10;3.83;;;2.67;;
43345;SDS011;28937;51.160;4.146;2023-04-15T10:43:44;3.75;;;2.22;;
43345;SDS011;28937;51.160;4.146;2023-04-15T10:46:12;3.58;;;2.60;;
43345;SDS011;28937;51.160;4.146;2023-04-15T10:48:37;2.88;;;2.58;;
43345;SDS011;28937;51.160;4.146;2023-04-15T10:51:03;4.78;;;2.80;;
43345;SDS011;28937;51.160;4.146;2023-04-15T10:53:29;2.50;;;1.80;;
43345;SDS011;28937;51.160;4.146;2023-04-15T10:55:56;3.92;;;2.45;;
43345;SDS011;28937;51.160;4.146;2023-04-15T10:58:23;4.32;;;2.80;;
43345;SDS011;28937;51.160;4.146;2023-04-15T11:00:50;5.47;;;3.28;;
43345;SDS011;28937;51.160;4.146;2023-04-15T11:03:33;4.35;;;3.30;;
43345;SDS011;28937;51.160;4.146;2023-04-15T11:06:02;2.90;;;2.63;;
43345;SDS011;28937;51.160;4.146;2023-04-15T11:11:20;6.40;;;4.25;;
43345;SDS011;28937;51.160;4.146;2023-04-15T11:13:47;4.53;;;2.97;;
43345;SDS011;28937;51.160;4.146;2023-04-15T11:16:14;4.18;;;2.13;;
43345;SDS011;28937;51.160;4.146;2023-04-15T11:18:40;4.68;;;2.60;;
43345;SDS011;28937;51.160;4.146;2023-04-15T11:21:06;3.90;;;3.40;;
43345;SDS011;28937;51.160;4.146;2023-04-15T11:23:37;4.28;;;3.38;;
43345;SDS011;28937;51.160;4.146;2023-04-15T11:26:05;4.75;;;3.50;;
43345;SDS011;28937;51.160;4.146;2023-04-15T11:28:34;5.53;;;3.83;;
43345;SDS011;28937;51.160;4.146;2023-04-15T11:31:10;5.00;;;2.80;;
43345;SDS011;28937;51.160;4.146;2023-04-15T11:33:43;5.75;;;4.10;;
43345;SDS011;28937;51.160;4.146;2023-04-15T11:36:10;3.85;;;2.60;;
43345;SDS011;28937;51.160;4.146;2023-04-15T11:38:36;5.78;;;2.67;;
43345;SDS011;28937;51.160;4.146;2023-04-15T11:41:06;4.05;;;3.28;;
43345;SDS011;28937;51.160;4.146;2023-04-15T11:43:31;4.88;;;2.85;;
43345;SDS011;28937;51.160;4.146;2023-04-15T11:45:59;2.50;;;2.00;;
43345;SDS011;28937;51.160;4.146;2023-04-15T11:48:28;3.40;;;2.83;;
43345;SDS011;28937;51.160;4.146;2023-04-15T11:50:59;2.17;;;1.73;;
43345;SDS011;28937;51.160;4.146;2023-04-15T11:53:48;4.63;;;2.90;;
43345;SDS011;28937;51.160;4.146;2023-04-15T11:58:43;3.20;;;2.17;;
43345;SDS011;28937;51.160;4.146;2023-04-15T12:01:10;3.08;;;1.92;;
43345;SDS011;28937;51.160;4.146;2023-04-15T12:03:40;5.68;;;2.67;;
43345;SDS011;28937;51.160;4.146;2023-04-15T12:06:11;4.47;;;3.17;;
43345;SDS011;28937;51.160;4.146;2023-04-15T12:11:44;4.85;;;2.92;;
43345;SDS011;28937;51.160;4.146;2023-04-15T12:16:48;6.97;;;4.07;;
43345;SDS011;28937;51.160;4.146;2023-04-15T12:19:24;7.55;;;4.60;;
43345;SDS011;28937;51.160;4.146;2023-04-15T12:21:52;5.50;;;3.80;;
43345;SDS011;28937;51.160;4.146;2023-04-15T12:24:22;5.18;;;3.42;;
43345;SDS011;28937;51.160;4.146;2023-04-15T12:26:52;4.32;;;2.83;;
43345;SDS011;28937;51.160;4.146;2023-04-15T12:29:19;6.20;;;3.53;;
43345;SDS011;28937;51.160;4.146;2023-04-15T12:31:49;6.35;;;2.40;;
43345;SDS011;28937;51.160;4.146;2023-04-15T12:34:16;2.72;;;2.10;;
43345;SDS011;28937;51.160;4.146;2023-04-15T12:36:43;4.47;;;2.10;;
43345;SDS011;28937;51.160;4.146;2023-04-15T12:39:08;3.38;;;2.38;;
43345;SDS011;28937;51.160;4.146;2023-04-15T12:41:34;2.65;;;2.05;;
43345;SDS011;28937;51.160;4.146;2023-04-15T12:44:00;6.18;;;2.97;;
43345;SDS011;28937;51.160;4.146;2023-04-15T12:46:26;4.82;;;2.58;;
43345;SDS011;28937;51.160;4.146;2023-04-15T12:48:51;5.40;;;3.00;;
43345;SDS011;28937;51.160;4.146;2023-04-15T12:51:18;3.58;;;2.45;;
43345;SDS011;28937;51.160;4.146;2023-04-15T12:53:45;5.18;;;2.70;;
43345;SDS011;28937;51.160;4.146;2023-04-15T12:56:11;3.97;;;2.30;;
43345;SDS011;28937;51.160;4.146;2023-04-15T12:58:37;3.67;;;1.83;;
43345;SDS011;28937;51.160;4.146;2023-04-15T13:01:03;5.07;;;1.50;;
43345;SDS011;28937;51.160;4.146;2023-04-15T13:03:28;5.93;;;2.35;;
43345;SDS011;28937;51.160;4.146;2023-04-15T13:05:54;3.42;;;1.88;;
43345;SDS011;28937;51.160;4.146;2023-04-15T13:08:21;5.90;;;3.30;;
43345;SDS011;28937;51.160;4.146;2023-04-15T13:10:47;3.53;;;2.70;;
43345;SDS011;28937;51.160;4.146;2023-04-15T13:13:12;3.88;;;2.75;;
43345;SDS011;28937;51.160;4.146;2023-04-15T13:15:38;4.03;;;2.47;;
43345;SDS011;28937;51.160;4.146;2023-04-15T13:18:05;5.75;;;1.88;;
43345;SDS011;28937;51.160;4.146;2023-04-15T13:20:31;3.17;;;1.05;;
43345;SDS011;28937;51.160;4.146;2023-04-15T13:22:56;3.65;;;1.38;;
43345;SDS011;28937;51.160;4.146;2023-04-15T13:25:22;4.47;;;1.60;;
43345;SDS011;28937;51.160;4.146;2023-04-15T13:27:48;13.15;;;1.55;;
43345;SDS011;28937;51.160;4.146;2023-04-15T13:30:14;1.55;;;1.00;;
43345;SDS011;28937;51.160;4.146;2023-04-15T13:32:39;3.25;;;1.70;;
43345;SDS011;28937;51.160;4.146;2023-04-15T13:35:05;4.13;;;1.83;;
43345;SDS011;28937;51.160;4.146;2023-04-15T13:37:30;4.15;;;1.77;;
43345;SDS011;28937;51.160;4.146;2023-04-15T13:39:56;3.13;;;1.95;;
43345;SDS011;28937;51.160;4.146;2023-04-15T13:42:22;3.75;;;1.77;;
43345;SDS011;28937;51.160;4.146;2023-04-15T13:44:49;4.22;;;2.20;;
43345;SDS011;28937;51.160;4.146;2023-04-15T13:47:15;4.60;;;2.40;;
43345;SDS011;28937;51.160;4.146;2023-04-15T13:49:41;4.88;;;2.30;;
43345;SDS011;28937;51.160;4.146;2023-04-15T13:52:07;8.50;;;2.88;;
43345;SDS011;28937;51.160;4.146;2023-04-15T13:54:33;5.65;;;2.58;;
43345;SDS011;28937;51.160;4.146;2023-04-15T13:56:59;6.95;;;2.72;;
43345;SDS011;28937;51.160;4.146;2023-04-15T13:59:25;4.60;;;2.92;;
43345;SDS011;28937;51.160;4.146;2023-04-15T14:01:51;7.38;;;3.10;;
43345;SDS011;28937;51.160;4.146;2023-04-15T14:04:17;5.65;;;2.80;;
43345;SDS011;28937;51.160;4.146;2023-04-15T14:06:42;4.40;;;2.47;;
43345;SDS011;28937;51.160;4.146;2023-04-15T14:09:08;5.18;;;2.70;;
43345;SDS011;28937;51.160;4.146;2023-04-15T14:11:34;5.80;;;4.10;;
43345;SDS011;28937;51.160;4.146;2023-04-15T14:14:00;6.05;;;3.67;;
43345;SDS011;28937;51.160;4.146;2023-04-15T14:16:26;7.88;;;4.18;;
43345;SDS011;28937;51.160;4.146;2023-04-15T14:18:52;7.10;;;4.15;;
43345;SDS011;28937;51.160;4.146;2023-04-15T14:21:17;7.38;;;4.22;;
43345;SDS011;28937;51.160;4.146;2023-04-15T14:23:43;6.45;;;4.38;;
43345;SDS011;28937;51.160;4.146;2023-04-15T14:26:09;9.45;;;4.75;;
43345;SDS011;28937;51.160;4.146;2023-04-15T14:28:34;5.32;;;4.65;;
43345;SDS011;28937;51.160;4.146;2023-04-15T14:31:02;6.43;;;4.85;;
43345;SDS011;28937;51.160;4.146;2023-04-15T14:33:27;5.70;;;4.95;;
43345;SDS011;28937;51.160;4.146;2023-04-15T14:35:53;5.47;;;4.38;;
43345;SDS011;28937;51.160;4.146;2023-04-15T14:38:18;9.77;;;5.00;;
43345;SDS011;28937;51.160;4.146;2023-04-15T14:40:46;7.22;;;4.70;;
43345;SDS011;28937;51.160;4.146;2023-04-15T14:43:12;7.10;;;4.40;;
43345;SDS011;28937;51.160;4.146;2023-04-15T14:45:37;8.73;;;4.95;;
43345;SDS011;28937;51.160;4.146;2023-04-15T14:48:03;8.85;;;5.22;;
43345;SDS011;28937;51.160;4.146;2023-04-15T14:50:30;5.32;;;4.57;;
43345;SDS011;28937;51.160;4.146;2023-04-15T14:52:57;7.13;;;4.95;;
43345;SDS011;28937;51.160;4.146;2023-04-15T14:55:22;7.50;;;4.13;;